Time;durP1;ratioP1;P1;durP2;ratioP2;P2;SDS_P1;SDS_P2;PMS_P1;PMS_P2;Temp;Humidity;BMP_temperature;BMP_pressure;BME280_temperature;BME280_humidity;BME280_pressure;Samples;Min_cycle;Max_cycle;Signal;HPM_P1;HPM_P2
2022/10/11 00:00:23;;;;;;;17.17;6.03;;;;;;;17.27;46.13;102536.78;5108910;28;20036;-74
2022/10/11 00:02:49;;;;;;;17.13;5.60;;;;;;;17.20;45.97;102535.06;5094898;28;20032;-77
2022/10/11 00:05:14;;;;;;;18.67;5.10;;;;;;;17.61;44.53;102537.25;5092824;28;20031;-76
2022/10/11 00:07:40;;;;;;;12.03;4.80;;;;;;;17.39;45.43;102541.91;5090538;28;20143;-74
2022/10/11 00:10:07;;;;;;;15.27;4.47;;;;;;;17.59;44.66;102539.03;5091802;28;20032;-74
2022/10/11 00:12:32;;;;;;;13.83;4.07;;;;;;;17.34;45.78;102554.31;5092907;28;20020;-74
2022/10/11 00:14:58;;;;;;;10.83;3.97;;;;;;;17.30;45.13;102542.00;5089734;28;20057;-74
2022/10/11 00:17:23;;;;;;;19.60;4.27;;;;;;;17.13;46.10;102553.63;5088890;28;20035;-74
2022/10/11 00:19:48;;;;;;;10.60;3.67;;;;;;;17.32;44.89;102550.78;5092417;28;20113;-73
2022/10/11 00:22:14;;;;;;;10.13;4.17;;;;;;;17.16;45.20;102554.47;5091721;28;20032;-76
2022/10/11 00:24:39;;;;;;;13.20;4.30;;;;;;;17.09;46.35;102553.66;5104264;28;20027;-76
2022/10/11 00:27:05;;;;;;;13.53;3.77;;;;;;;17.37;45.07;102556.91;5095378;28;20463;-74
2022/10/11 00:29:30;;;;;;;11.27;3.63;;;;;;;17.19;45.52;102562.41;5094213;28;20120;-74
2022/10/11 00:31:55;;;;;;;13.73;3.77;;;;;;;17.19;45.38;102565.03;5091947;28;20392;-74
2022/10/11 00:34:21;;;;;;;8.30;3.07;;;;;;;16.98;46.02;102566.09;5091986;28;20028;-74
2022/10/11 00:36:46;;;;;;;8.90;2.53;;;;;;;17.15;45.73;102565.97;5087809;28;20031;-74
2022/10/11 00:39:11;;;;;;;8.87;3.17;;;;;;;17.20;45.28;102564.13;5107228;28;20126;-76
2022/10/11 00:41:37;;;;;;;10.00;3.23;;;;;;;17.11;45.66;102565.97;5093427;28;20035;-73
2022/10/11 00:44:18;;;;;;;7.70;3.17;;;;;;;17.14;45.23;102567.72;5090898;28;20036;-74
2022/10/11 00:46:50;;;;;;;8.63;3.00;;;;;;;17.06;45.38;102570.44;5093077;28;20057;-74
2022/10/11 00:49:35;;;;;;;15.25;3.17;;;;;;;17.00;45.79;102565.22;5107468;28;20039;-76
2022/10/11 00:52:06;;;;;;;10.37;3.10;;;;;;;16.93;45.92;102566.16;5091293;28;20505;-74
2022/10/11 00:54:34;;;;;;;6.67;2.80;;;;;;;17.01;45.42;102569.63;5095068;28;20028;-74
2022/10/11 00:57:04;;;;;;;13.00;3.17;;;;;;;16.86;46.56;102569.72;5089098;28;20073;-76
2022/10/11 00:59:38;;;;;;;11.70;3.70;;;;;;;17.19;45.28;102565.91;5092355;28;20531;-74
2022/10/11 01:02:05;;;;;;;12.90;3.57;;;;;;;16.86;45.96;102572.38;5089729;28;20036;-77
2022/10/11 01:04:31;;;;;;;10.13;2.97;;;;;;;16.77;46.08;102579.47;5090736;28;20024;-76
2022/10/11 01:06:57;;;;;;;8.27;2.50;;;;;;;16.96;45.82;102576.69;5090592;28;20043;-74
2022/10/11 01:09:25;;;;;;;7.27;2.83;;;;;;;17.09;45.30;102580.97;5090753;28;20028;-75
2022/10/11 01:11:52;;;;;;;7.43;2.67;;;;;;;17.13;45.07;102577.41;5091294;28;20019;-77
2022/10/11 01:14:29;;;;;;;8.13;2.70;;;;;;;16.95;45.35;102575.81;5091486;28;20032;-76
2022/10/11 01:17:03;;;;;;;9.77;2.37;;;;;;;16.90;45.97;102576.75;5089842;28;20028;-75
2022/10/11 01:19:57;;;;;;;11.97;2.67;;;;;;;16.94;45.72;102581.13;5090162;28;20059;-74
2022/10/11 01:22:40;;;;;;;;;;;;;;;17.15;44.84;102590.59;5091560;28;20070;-74
2022/10/11 01:25:05;;;;;;;;;;;;;;;16.96;45.42;102584.63;5089124;28;20417;-74
2022/10/11 01:28:15;;;;;;;6.40;3.10;;;;;;;16.90;45.17;102584.69;5090424;28;19912;-76
2022/10/11 01:30:41;;;;;;;10.60;3.03;;;;;;;17.06;45.09;102596.88;5082677;28;20514;-76
2022/10/11 01:33:36;;;;;;;9.10;2.53;;;;;;;16.80;45.99;102589.09;5088754;28;20028;-77
2022/10/11 01:36:26;;;;;;;7.40;2.73;;;;;;;16.70;46.13;102590.94;5079976;28;20369;-74
2022/10/11 01:39:08;;;;;;;9.00;2.87;;;;;;;16.63;46.57;102586.63;5104198;28;20047;-76
2022/10/11 01:41:43;;;;;;;7.73;2.47;;;;;;;16.81;45.36;102590.00;5107752;28;20046;-76
2022/10/11 01:44:11;;;;;;;7.27;2.17;;;;;;;16.79;45.84;102592.66;5091659;28;20030;-76
2022/10/11 01:46:37;;;;;;;6.33;1.90;;;;;;;16.79;45.98;102588.25;5091155;28;20028;-75
2022/10/11 01:49:03;;;;;;;6.47;2.10;;;;;;;16.94;45.68;102591.69;5089662;28;20028;-75
2022/10/11 01:51:40;;;;;;;11.73;2.50;;;;;;;16.91;45.89;102596.97;5090864;28;20507;-75
2022/10/11 01:54:40;;;;;;;6.70;1.60;;;;;;;16.71;46.08;102599.78;5091940;28;20028;-75
2022/10/11 01:57:41;;;;;;;4.20;1.50;;;;;;;16.82;45.77;102597.03;5097625;27;20127;-75
2022/10/11 02:00:18;;;;;;;8.00;1.80;;;;;;;16.71;45.82;102600.63;5089198;28;20036;-74
2022/10/11 02:02:55;;;;;;;3.97;1.60;;;;;;;16.63;45.92;102597.19;5089123;28;20047;-75
2022/10/11 02:05:36;;;;;;;10.17;2.47;;;;;;;16.74;45.98;102599.75;5089717;28;20039;-75
2022/10/11 02:08:13;;;;;;;6.97;1.47;;;;;;;17.06;44.39;102602.16;5093642;28;20098;-75
2022/10/11 02:10:41;;;;;;;5.67;1.60;;;;;;;16.57;45.42;102606.03;5089825;28;20621;-74
2022/10/11 02:13:50;;;;;;;6.33;2.27;;;;;;;16.85;45.14;102597.88;5088579;28;20123;-75
2022/10/11 02:16:21;;;;;;;5.13;1.50;;;;;;;16.90;44.57;102592.63;5090721;28;20070;-75
2022/10/11 02:18:50;;;;;;;6.63;1.57;;;;;;;16.89;44.38;102594.34;5092733;28;20032;-75
2022/10/11 02:21:21;;;;;;;11.13;2.07;;;;;;;16.49;45.54;102599.06;5089480;28;20035;-74
2022/10/11 02:23:52;;;;;;;11.17;1.83;;;;;;;16.48;45.85;102602.56;5120342;27;20545;-75
2022/10/11 02:26:19;;;;;;;4.50;1.53;;;;;;;16.38;46.28;102599.97;5096795;28;20097;-75
2022/10/11 02:28:47;;;;;;;4.10;1.30;;;;;;;16.26;46.49;102590.38;5088121;28;20032;-75
2022/10/11 02:31:14;;;;;;;7.30;1.57;;;;;;;16.33;45.97;102591.22;5088775;28;20034;-74
2022/10/11 02:33:52;;;;;;;4.47;1.60;;;;;;;16.50;45.72;102595.50;5088066;28;20036;-75
2022/10/11 02:36:35;;;;;;;4.70;1.80;;;;;;;16.60;45.72;102587.50;5081029;28;20043;-75
2022/10/11 02:39:10;;;;;;;7.53;1.70;;;;;;;16.47;45.47;102598.16;5091833;28;20141;-75
2022/10/11 02:41:38;;;;;;;7.77;1.60;;;;;;;16.43;46.23;102606.13;5091077;28;20088;-75
2022/10/11 02:44:10;;;;;;;8.23;1.73;;;;;;;16.37;45.77;102595.59;5088645;28;20384;-75
2022/10/11 02:46:37;;;;;;;6.03;1.48;;;;;;;16.48;45.48;102600.78;5088566;28;20032;-75
2022/10/11 02:49:02;;;;;;;5.70;2.03;;;;;;;16.49;45.79;102596.41;5087656;28;20020;-74
2022/10/11 02:51:31;;;;;;;7.57;2.10;;;;;;;16.39;45.87;102595.56;5090834;28;20044;-74
2022/10/11 02:53:57;;;;;;;5.23;1.63;;;;;;;16.44;45.92;102601.69;5088177;28;20032;-75
2022/10/11 02:56:23;;;;;;;13.90;1.93;;;;;;;16.51;45.64;102608.69;5095510;28;20030;-74
2022/10/11 02:58:48;;;;;;;5.03;2.03;;;;;;;16.41;45.75;102607.88;5097098;28;20028;-75
2022/10/11 03:01:14;;;;;;;5.77;2.33;;;;;;;16.44;46.08;102607.88;5090323;28;20119;-74
2022/10/11 03:03:39;;;;;;;6.17;1.60;;;;;;;16.46;46.15;102605.22;5089253;28;20031;-74
2022/10/11 03:06:05;;;;;;;5.40;1.80;;;;;;;16.51;45.74;102602.53;5089756;28;20027;-74
2022/10/11 03:08:31;;;;;;;7.77;1.70;;;;;;;16.53;45.22;102611.34;5089383;28;20085;-74
2022/10/11 03:10:56;;;;;;;4.57;1.43;;;;;;;16.65;45.06;102600.69;5091391;28;20388;-75
2022/10/11 03:13:22;;;;;;;5.27;1.47;;;;;;;16.56;45.66;102606.03;5089345;28;20031;-74
2022/10/11 03:15:52;;;;;;;6.57;1.50;;;;;;;16.39;45.71;102608.75;5091505;28;20119;-75
2022/10/11 03:18:17;;;;;;;9.63;1.67;;;;;;;16.40;46.10;102615.81;5092520;28;20020;-75
2022/10/11 03:20:43;;;;;;;8.03;1.57;;;;;;;16.33;45.70;102611.47;5102151;28;20036;-75
2022/10/11 03:23:08;;;;;;;5.93;1.40;;;;;;;16.21;46.29;102620.31;5081956;28;20036;-75
2022/10/11 03:25:34;;;;;;;6.77;1.87;;;;;;;16.25;46.27;102616.75;5093959;28;20024;-75
2022/10/11 03:27:59;;;;;;;7.73;1.53;;;;;;;16.48;45.55;102614.00;5099515;28;20440;-74
2022/10/11 03:30:25;;;;;;;4.90;1.30;;;;;;;16.40;45.78;102610.53;5092865;28;20334;-75
2022/10/11 03:32:50;;;;;;;4.80;1.47;;;;;;;16.28;46.37;102617.63;5109091;28;20052;-75
2022/10/11 03:35:15;;;;;;;10.30;2.00;;;;;;;16.31;46.19;102621.13;5094105;27;20045;-75
2022/10/11 03:37:41;;;;;;;13.17;1.80;;;;;;;16.33;46.06;102616.72;5091480;28;20483;-75
2022/10/11 03:40:07;;;;;;;10.50;1.97;;;;;;;16.43;45.55;102619.31;5083240;28;20385;-75
2022/10/11 03:42:33;;;;;;;5.20;1.40;;;;;;;16.26;46.10;102623.81;5086805;28;20032;-75
2022/10/11 03:45:03;;;;;;;9.60;2.00;;;;;;;16.21;46.25;102621.19;5092910;28;20063;-75
2022/10/11 03:47:29;;;;;;;8.57;1.77;;;;;;;16.55;45.26;102620.09;5091054;28;20035;-75
2022/10/11 03:49:54;;;;;;;3.03;1.53;;;;;;;16.27;45.96;102625.56;5093212;28;20028;-75
2022/10/11 03:52:19;;;;;;;6.33;1.50;;;;;;;16.32;45.98;102623.78;5091365;28;20135;-75
2022/10/11 03:54:45;;;;;;;6.07;1.73;;;;;;;16.07;46.60;102623.91;5096129;27;21356;-75
2022/10/11 03:57:10;;;;;;;5.87;1.30;;;;;;;16.21;46.03;102639.66;5094079;28;20055;-75
2022/10/11 03:59:35;;;;;;;8.07;1.73;;;;;;;16.27;46.08;102623.78;5096734;28;20066;-75
2022/10/11 04:02:01;;;;;;;11.43;2.90;;;;;;;16.14;46.35;102624.72;5093410;28;20024;-75
2022/10/11 04:04:26;;;;;;;8.27;2.00;;;;;;;16.28;45.51;102622.06;5092187;28;20023;-75
2022/10/11 04:06:52;;;;;;;5.63;1.70;;;;;;;16.33;46.01;102614.09;5090243;28;20020;-75
2022/10/11 04:09:18;;;;;;;4.40;1.67;;;;;;;16.17;46.35;102623.84;5093469;28;20024;-75
2022/10/11 04:11:43;;;;;;;9.23;1.73;;;;;;;16.30;46.12;102628.19;5092579;28;20027;-75
2022/10/11 04:14:08;;;;;;;8.73;1.80;;;;;;;16.23;46.29;102631.75;5089774;28;20032;-75
2022/10/11 04:16:34;;;;;;;7.27;1.40;;;;;;;16.32;46.30;102622.88;5092281;28;20042;-75
2022/10/11 04:18:59;;;;;;;4.97;1.93;;;;;;;16.30;46.31;102636.09;5094949;28;20047;-75
2022/10/11 04:21:25;;;;;;;7.07;1.70;;;;;;;16.30;46.28;102629.94;5109463;28;20017;-75
2022/10/11 04:23:50;;;;;;;8.50;1.97;;;;;;;16.36;46.54;102636.06;5094233;28;20047;-75
2022/10/11 04:26:15;;;;;;;9.70;2.90;;;;;;;16.72;45.78;102644.63;5091952;28;20028;-75
2022/10/11 04:28:41;;;;;;;6.60;2.80;;;;;;;16.10;46.83;102650.25;5091399;28;20028;-75
2022/10/11 04:31:06;;;;;;;12.77;2.53;;;;;;;16.60;45.99;102647.38;5090744;28;20111;-75
2022/10/11 04:33:33;;;;;;;11.73;4.03;;;;;;;16.63;46.07;102644.69;5090585;28;20055;-75
2022/10/11 04:35:58;;;;;;;10.30;3.67;;;;;;;16.55;45.81;102643.88;5082079;28;20035;-75
2022/10/11 04:38:24;;;;;;;12.70;3.13;;;;;;;16.71;45.95;102650.78;5102014;27;20031;-75
2022/10/11 04:40:49;;;;;;;8.37;2.63;;;;;;;16.86;45.03;102651.59;5093060;28;20048;-75
2022/10/11 04:43:16;;;;;;;9.07;3.23;;;;;;;16.82;45.66;102649.88;5088419;28;20028;-75
2022/10/11 04:45:42;;;;;;;10.20;2.70;;;;;;;16.69;45.82;102649.06;5093351;28;20043;-75
2022/10/11 04:48:07;;;;;;;9.50;3.80;;;;;;;16.48;46.80;102650.94;5104489;28;20483;-75
2022/10/11 04:50:33;;;;;;;9.73;3.50;;;;;;;16.53;46.61;102648.28;5093312;28;20030;-75
2022/10/11 04:52:58;;;;;;;8.50;3.37;;;;;;;16.61;46.18;102657.03;5090332;28;20109;-75
2022/10/11 04:55:24;;;;;;;9.00;2.67;;;;;;;16.89;45.31;102656.88;5090179;28;20024;-75
2022/10/11 04:57:49;;;;;;;10.70;2.20;;;;;;;16.74;46.00;102657.81;5091813;28;20114;-75
2022/10/11 05:00:15;;;;;;;7.20;2.20;;;;;;;17.09;44.78;102654.94;5112667;27;20020;-75
2022/10/11 05:02:40;;;;;;;9.40;2.20;;;;;;;16.98;45.19;102663.84;5095251;27;20128;-75
2022/10/11 05:05:06;;;;;;;9.33;2.50;;;;;;;16.95;45.43;102656.81;5107724;28;20024;-75
2022/10/11 05:07:31;;;;;;;6.50;2.07;;;;;;;16.92;46.09;102668.28;5090326;28;20498;-75
2022/10/11 05:09:57;;;;;;;6.20;2.37;;;;;;;16.96;45.60;102663.84;5092445;28;20445;-74
2022/10/11 05:12:22;;;;;;;7.47;2.20;;;;;;;16.54;46.74;102656.19;5090579;28;20106;-75
2022/10/11 05:14:47;;;;;;;8.60;2.53;;;;;;;16.88;45.95;102660.38;5090718;28;20032;-75
2022/10/11 05:17:13;;;;;;;11.20;2.40;;;;;;;17.11;45.28;102663.72;5089066;28;20111;-74
2022/10/11 05:19:38;;;;;;;6.93;2.33;;;;;;;17.12;45.48;102664.63;5089749;28;20032;-75
2022/10/11 05:22:03;;;;;;;6.27;2.10;;;;;;;16.96;45.87;102669.13;5095272;28;20342;-75
2022/10/11 05:24:29;;;;;;;7.33;2.13;;;;;;;17.00;46.41;102673.50;5090229;28;20035;-75
2022/10/11 05:26:54;;;;;;;12.67;2.27;;;;;;;17.01;46.28;102666.44;5094613;28;20510;-75
2022/10/11 05:29:20;;;;;;;9.57;2.97;;;;;;;17.13;45.85;102669.00;5087653;28;20078;-75
2022/10/11 05:31:45;;;;;;;12.23;2.70;;;;;;;17.30;46.02;102671.50;5085894;28;20050;-75
2022/10/11 05:34:10;;;;;;;10.80;3.13;;;;;;;17.29;46.05;102677.69;5088130;28;20105;-75
2022/10/11 05:36:36;;;;;;;9.83;2.77;;;;;;;17.22;45.88;102675.97;5088027;28;20500;-75
2022/10/11 05:39:01;;;;;;;9.60;2.57;;;;;;;17.21;45.92;102682.16;5091434;28;20054;-75
2022/10/11 05:41:28;;;;;;;9.27;2.33;;;;;;;17.15;46.10;102684.84;5086721;28;20503;-75
2022/10/11 05:43:53;;;;;;;8.30;2.90;;;;;;;17.38;45.67;102688.19;5087996;28;20051;-75
2022/10/11 05:46:18;;;;;;;10.60;2.27;;;;;;;17.44;45.43;102682.81;5090157;28;20028;-75
2022/10/11 05:48:44;;;;;;;9.63;3.00;;;;;;;17.45;45.68;102689.84;5091147;28;20020;-75
2022/10/11 05:51:10;;;;;;;16.17;2.00;;;;;;;17.37;45.61;102688.19;5090851;28;20047;-75
2022/10/11 05:53:37;;;;;;;11.03;3.10;;;;;;;17.37;45.53;102691.69;5092378;28;20032;-75
2022/10/11 05:56:03;;;;;;;8.33;2.90;;;;;;;17.49;45.41;102689.81;5092589;28;20055;-75
2022/10/11 05:58:28;;;;;;;10.10;2.47;;;;;;;17.34;45.38;102693.47;5113018;28;20056;-75
2022/10/11 06:00:55;;;;;;;7.67;2.27;;;;;;;17.38;45.65;102697.84;5089647;28;20047;-75
2022/10/11 06:03:21;;;;;;;9.77;2.90;;;;;;;17.30;45.61;102695.28;5092882;28;20019;-74
2022/10/11 06:05:47;;;;;;;9.33;2.53;;;;;;;17.34;45.92;102701.41;5090890;28;20035;-75
2022/10/11 06:08:14;;;;;;;10.37;2.77;;;;;;;17.17;46.34;102704.19;5091382;28;20024;-75
2022/10/11 06:10:40;;;;;;;11.27;2.40;;;;;;;17.38;46.14;102708.41;5091650;28;20032;-76
2022/10/11 06:13:06;;;;;;;9.60;2.63;;;;;;;17.26;46.41;102712.06;5089904;28;20421;-76
2022/10/11 06:15:32;;;;;;;13.60;4.43;;;;;;;17.41;46.25;102704.00;5091890;28;20031;-76
2022/10/11 06:17:58;;;;;;;9.50;3.33;;;;;;;17.39;45.40;102700.50;5089004;28;20148;-76
2022/10/11 06:20:24;;;;;;;8.40;3.47;;;;;;;17.36;45.83;102711.09;5087634;28;20040;-76
2022/10/11 06:22:50;;;;;;;9.27;3.17;;;;;;;17.41;45.50;102706.63;5087115;28;20039;-76
2022/10/11 06:25:15;;;;;;;11.07;2.77;;;;;;;17.39;45.33;102715.47;5090173;28;20023;-76
2022/10/11 06:27:40;;;;;;;9.30;2.20;;;;;;;17.42;45.44;102710.16;5090126;28;20028;-76
2022/10/11 06:30:06;;;;;;;6.20;2.83;;;;;;;17.55;45.48;102718.88;5088369;28;20020;-76
2022/10/11 06:32:32;;;;;;;7.83;2.57;;;;;;;17.43;45.67;102718.09;5089144;28;20028;-77
2022/10/11 06:34:57;;;;;;;11.23;2.63;;;;;;;17.32;45.68;102725.22;5107897;28;20027;-76
2022/10/11 06:37:22;;;;;;;12.90;2.73;;;;;;;17.09;46.39;102728.94;5090331;28;20510;-77
2022/10/11 06:39:49;;;;;;;8.00;2.80;;;;;;;17.31;45.80;102731.41;5095572;28;20176;-76
2022/10/11 06:42:15;;;;;;;13.80;3.10;;;;;;;17.59;45.54;102723.22;5110906;28;20051;-76
2022/10/11 06:44:40;;;;;;;15.03;2.53;;;;;;;17.59;45.67;102728.50;5101037;28;20561;-76
2022/10/11 06:47:06;;;;;;;9.33;2.40;;;;;;;17.48;46.12;102728.63;5090818;28;20336;-77
2022/10/11 06:49:32;;;;;;;12.20;3.03;;;;;;;17.69;45.79;102732.81;5090011;28;20490;-76
2022/10/11 06:51:58;;;;;;;17.63;2.93;;;;;;;17.87;45.79;102733.53;5091001;28;20404;-77
2022/10/11 06:54:23;;;;;;;12.93;2.87;;;;;;;17.99;45.83;102738.72;5088253;28;20028;-77
2022/10/11 06:56:49;;;;;;;17.03;3.10;;;;;;;17.93;45.65;102739.66;5095539;28;20024;-76
2022/10/11 06:59:14;;;;;;;15.23;3.37;;;;;;;18.13;45.35;102741.19;5090734;28;20122;-77
2022/10/11 07:01:41;;;;;;;17.43;3.07;;;;;;;17.96;45.74;102744.06;5093357;28;20020;-77
2022/10/11 07:04:07;;;;;;;10.00;3.13;;;;;;;18.20;45.88;102749.94;5094578;28;20065;-77
2022/10/11 07:06:36;;;;;;;9.87;2.90;;;;;;;18.07;45.66;102744.81;5095716;28;20021;-77
2022/10/11 07:09:02;;;;;;;15.97;3.93;;;;;;;17.92;46.21;102752.91;5095614;28;20498;-77
2022/10/11 07:11:28;;;;;;;6.47;2.60;;;;;;;18.19;45.93;102756.13;5094863;28;20053;-77
2022/10/11 07:14:03;;;;;;;5.93;2.40;;;;;;;18.13;46.31;102750.03;5094977;28;20027;-76
2022/10/11 07:16:28;;;;;;;8.57;2.27;;;;;;;18.29;45.64;102752.50;5093845;28;20165;-77
2022/10/11 07:18:57;;;;;;;13.60;3.37;;;;;;;18.33;46.24;102754.22;5094844;28;20111;-76
2022/10/11 07:21:22;;;;;;;11.10;2.90;;;;;;;18.12;46.33;102758.88;5094550;28;20480;-76
2022/10/11 07:23:48;;;;;;;12.03;2.70;;;;;;;18.41;46.15;102764.69;5095505;28;20032;-77
2022/10/11 07:26:13;;;;;;;9.10;2.63;;;;;;;18.58;45.94;102754.75;5094210;28;20020;-76
2022/10/11 07:28:39;;;;;;;13.83;3.33;;;;;;;18.67;46.05;102756.44;5094681;28;20119;-76
2022/10/11 07:31:17;;;;;;;14.90;2.87;;;;;;;18.59;45.79;102755.66;5093712;28;20028;-77
2022/10/11 07:33:42;;;;;;;13.10;2.70;;;;;;;18.63;46.34;102762.66;5095635;28;20158;-77
2022/10/11 07:36:08;;;;;;;12.97;3.50;;;;;;;18.97;46.16;102768.41;5094206;28;20630;-76
2022/10/11 07:38:33;;;;;;;13.37;2.77;;;;;;;19.13;45.13;102765.50;5093441;28;20020;-77
2022/10/11 07:41:04;;;;;;;13.70;3.10;;;;;;;19.33;45.77;102775.81;5094484;28;20478;-76
2022/10/11 07:43:30;;;;;;;15.07;3.03;;;;;;;19.43;45.67;102771.22;5094530;28;20051;-77
2022/10/11 07:45:59;;;;;;;12.43;3.73;;;;;;;19.20;46.29;102766.28;5094943;28;20480;-76
2022/10/11 07:48:24;;;;;;;7.03;3.80;;;;;;;18.62;47.04;102771.50;5094231;28;20119;-76
2022/10/11 07:50:49;;;;;;;15.50;3.50;;;;;;;19.04;47.43;102777.13;5093657;28;20103;-77
2022/10/11 07:53:15;;;;;;;10.03;3.63;;;;;;;19.39;46.41;102767.75;5095154;28;20464;-76
2022/10/11 07:55:41;;;;;;;14.03;3.90;;;;;;;19.50;46.53;102773.72;5094476;28;20708;-77
2022/10/11 07:58:11;;;;;;;13.90;3.70;;;;;;;19.97;45.98;102778.25;5094108;28;20024;-77
2022/10/11 08:00:37;;;;;;;14.53;3.83;;;;;;;19.86;45.95;102782.91;5093732;28;20024;-77
2022/10/11 08:03:06;;;;;;;10.63;3.60;;;;;;;19.74;46.54;102783.94;5093808;28;20020;-77
2022/10/11 08:05:32;;;;;;;11.93;5.40;;;;;;;20.41;45.47;102784.47;5092147;28;20069;-77
2022/10/11 08:07:58;;;;;;;10.10;4.00;;;;;;;20.46;45.10;102782.59;5094327;28;20059;-77
2022/10/11 08:10:27;;;;;;;15.13;3.53;;;;;;;19.98;45.87;102787.97;5093748;28;20054;-76
2022/10/11 08:12:52;;;;;;;16.83;3.60;;;;;;;20.29;45.60;102784.72;5093558;28;20440;-77
2022/10/11 08:15:18;;;;;;;17.03;3.83;;;;;;;20.22;45.88;102794.59;5093877;28;20086;-77
2022/10/11 08:17:44;;;;;;;12.93;3.47;;;;;;;20.60;44.99;102784.09;5093755;28;20027;-77
2022/10/11 08:20:10;;;;;;;15.27;3.80;;;;;;;20.45;44.89;102786.16;5094682;28;20024;-77
2022/10/11 08:22:35;;;;;;;14.03;2.97;;;;;;;19.88;45.48;102789.94;5093540;28;20479;-77
2022/10/11 08:25:00;;;;;;;13.88;3.40;;;;;;;19.99;45.96;102787.09;5093888;28;20028;-77
2022/10/11 08:27:26;;;;;;;17.35;3.08;;;;;;;20.87;44.89;102787.06;5093314;28;20024;-77
2022/10/11 08:29:51;;;;;;;14.40;3.00;;;;;;;20.76;44.47;102790.84;5093369;28;20019;-77
2022/10/11 08:32:16;;;;;;;16.58;3.20;;;;;;;20.65;43.53;102792.84;5094880;28;20440;-77
2022/10/11 08:34:42;;;;;;;15.90;3.50;;;;;;;21.18;43.30;102787.25;5092889;28;20139;-76
2022/10/11 08:37:07;;;;;;;13.82;2.92;;;;;;;20.78;43.48;102799.66;5093749;28;20032;-77
2022/10/11 08:39:33;;;;;;;10.20;2.28;;;;;;;20.37;44.08;102804.03;5093382;28;20134;-77
2022/10/11 08:42:31;;;;;;;15.27;2.83;;;;;;;19.87;45.05;102808.53;5092789;28;20032;-76
2022/10/11 08:45:01;;;;;;;10.82;2.67;;;;;;;20.79;42.87;102806.72;5092888;28;20028;-77
2022/10/11 08:47:35;;;;;;;12.55;2.55;;;;;;;19.82;44.68;102812.16;5094312;28;20467;-77
2022/10/11 08:50:02;;;;;;;9.38;2.58;;;;;;;20.12;43.85;102820.44;5093096;28;20031;-77
2022/10/11 08:53:26;;;;;;;11.68;2.42;;;;;;;21.12;42.36;102814.00;5092759;28;20500;-77
2022/10/11 08:55:53;;;;;;;10.00;3.05;;;;;;;21.17;42.42;102814.72;5014952;28;20026;-76
2022/10/11 08:58:38;;;;;;;9.57;2.58;;;;;;;22.42;40.57;102816.91;5015205;28;20036;-77
2022/10/11 09:01:10;;;;;;;14.68;2.63;;;;;;;21.69;41.95;102817.94;5060840;28;20498;-76
2022/10/11 09:03:40;;;;;;;18.40;2.83;;;;;;;21.86;41.23;102821.03;5092203;28;20123;-77
2022/10/11 09:06:43;;;;;;;16.75;3.35;;;;;;;21.82;40.85;102819.38;5092541;28;20266;-77
2022/10/11 09:09:39;;;;;;;12.98;2.40;;;;;;;21.89;40.51;102813.91;5081329;28;20036;-77
2022/10/11 09:12:29;;;;;;;10.38;1.80;;;;;;;22.40;40.60;102824.06;5092881;28;20024;-76
2022/10/11 09:15:19;;;;;;;7.97;1.60;;;;;;;22.28;40.61;102819.03;5092183;28;20165;-76
2022/10/11 09:17:50;;;;;;;10.77;2.30;;;;;;;21.93;40.93;102819.09;5091466;28;20031;-76
2022/10/11 09:20:40;;;;;;;9.38;1.60;;;;;;;22.37;38.83;102824.16;5092465;28;20081;-76
2022/10/11 09:23:11;;;;;;;7.97;2.10;;;;;;;20.45;40.57;102823.34;5091744;28;20035;-76
2022/10/11 09:25:48;;;;;;;12.60;2.53;;;;;;;21.11;39.60;102818.41;5092567;28;20035;-76
2022/10/11 09:28:40;;;;;;;12.70;2.45;;;;;;;22.11;38.42;102823.06;5092202;28;20029;-76
2022/10/11 09:31:10;;;;;;;6.32;1.60;;;;;;;21.82;38.66;102822.03;5091545;28;20020;-76
2022/10/11 09:33:42;;;;;;;12.43;2.10;;;;;;;21.82;39.04;102822.03;5091985;28;20028;-76
2022/10/11 09:36:23;;;;;;;10.38;1.80;;;;;;;21.22;38.81;102826.16;5091910;28;20039;-75
2022/10/11 09:38:58;;;;;;;11.93;1.52;;;;;;;21.44;38.33;102821.19;5092615;28;20057;-76
2022/10/11 09:41:49;;;;;;;12.95;1.60;;;;;;;22.71;36.56;102823.19;5091541;28;20012;-76
2022/10/11 09:44:21;;;;;;;12.93;1.63;;;;;;;21.70;37.71;102822.34;5091156;28;20020;-76
2022/10/11 09:46:48;;;;;;;16.00;2.03;;;;;;;22.52;35.67;102823.69;5091806;28;20036;-75
2022/10/11 09:49:18;;;;;;;15.05;1.77;;;;;;;21.88;37.77;102825.47;5091318;28;20024;-75
2022/10/11 09:51:56;;;;;;;10.38;1.60;;;;;;;23.11;36.25;102827.28;5090878;28;20575;-75
2022/10/11 09:54:36;;;;;;;13.50;1.77;;;;;;;22.66;35.90;102825.97;5091390;28;20024;-75
2022/10/11 09:57:02;;;;;;;12.90;2.10;;;;;;;23.12;35.35;102829.06;5091494;28;20034;-75
2022/10/11 09:59:34;;;;;;;8.63;1.80;;;;;;;23.85;34.97;102838.22;5090808;28;20024;-75
2022/10/11 10:02:12;;;;;;;11.77;2.50;;;;;;;23.00;35.81;102826.75;5091293;28;20077;-75
2022/10/11 10:04:52;;;;;;;9.43;1.80;;;;;;;23.25;34.82;102818.00;5091256;28;20071;-75
2022/10/11 10:07:18;;;;;;;11.68;1.63;;;;;;;22.23;36.69;102820.94;5091770;28;20036;-75
2022/10/11 10:09:44;;;;;;;9.55;1.70;;;;;;;22.73;34.70;102823.13;5091247;28;20035;-75
2022/10/11 10:12:17;;;;;;;13.15;1.92;;;;;;;22.52;35.28;102829.03;5090595;28;20059;-75
2022/10/11 10:15:02;;;;;;;9.20;1.50;;;;;;;23.28;34.12;102823.22;5091134;28;20036;-75
2022/10/11 10:17:27;;;;;;;14.27;1.98;;;;;;;23.31;34.51;102820.44;5091251;28;20475;-75
2022/10/11 10:19:55;;;;;;;11.48;1.52;;;;;;;23.04;34.22;102823.06;5090125;28;20049;-75
2022/10/11 10:22:25;;;;;;;9.18;2.17;;;;;;;22.44;34.57;102820.38;5090804;28;20035;-75
2022/10/11 10:24:52;;;;;;;8.32;1.58;;;;;;;22.92;34.21;102820.78;5091121;28;20023;-74
2022/10/11 10:27:20;;;;;;;14.70;1.83;;;;;;;23.27;33.88;102816.13;5091774;28;20157;-75
2022/10/11 10:30:06;;;;;;;10.20;1.50;;;;;;;24.65;31.54;102815.78;5091475;28;20028;-75
2022/10/11 10:32:58;;;;;;;14.32;1.70;;;;;;;24.43;32.47;102815.69;5091057;28;20027;-75
2022/10/11 10:35:24;;;;;;;8.93;1.55;;;;;;;24.05;33.34;102820.63;5090702;28;20054;-75
2022/10/11 10:37:55;;;;;;;10.90;2.13;;;;;;;24.29;32.81;102818.00;5091054;28;20032;-75
2022/10/11 10:40:26;;;;;;;9.52;1.70;;;;;;;23.33;33.63;102810.63;5091500;28;20459;-75
2022/10/11 10:42:52;;;;;;;11.40;1.70;;;;;;;24.16;32.20;102818.44;5092014;28;20532;-75
2022/10/11 10:45:20;;;;;;;11.60;2.13;;;;;;;24.15;32.48;102813.16;5091802;28;20111;-74
2022/10/11 10:48:07;;;;;;;11.43;1.77;;;;;;;23.79;32.93;102811.72;5090093;28;20074;-75
2022/10/11 10:50:53;;;;;;;9.77;2.05;;;;;;;24.17;31.81;102814.00;5090756;28;20031;-75
2022/10/11 10:53:43;;;;;;;11.40;1.70;;;;;;;24.60;31.73;102811.50;5090836;28;20484;-75
2022/10/11 10:56:18;;;;;;;11.88;1.58;;;;;;;25.09;30.43;102804.28;5090002;28;20024;-75
2022/10/11 10:58:43;;;;;;;9.05;1.70;;;;;;;24.16;31.31;102807.75;5090472;28;20020;-75
2022/10/11 11:01:09;;;;;;;11.60;1.95;;;;;;;24.24;31.37;102809.31;5089666;28;20038;-75
2022/10/11 11:03:42;;;;;;;10.32;1.38;;;;;;;24.50;32.54;102798.50;5090498;28;20024;-74
2022/10/11 11:06:24;;;;;;;6.32;1.45;;;;;;;25.20;31.85;102796.66;5090611;28;20031;-75
2022/10/11 11:08:56;;;;;;;13.20;2.45;;;;;;;23.06;32.29;102809.69;5089914;28;20032;-75
2022/10/11 11:11:40;;;;;;;9.80;1.85;;;;;;;23.43;33.23;102801.38;5090171;28;20032;-75
2022/10/11 11:14:06;;;;;;;10.65;2.00;;;;;;;24.02;32.39;102804.72;5090593;28;20020;-75
2022/10/11 11:16:31;;;;;;;10.90;1.63;;;;;;;24.95;31.01;102796.81;5089527;28;20039;-75
2022/10/11 11:19:00;;;;;;;9.73;1.55;;;;;;;25.10;31.51;102803.34;5091702;28;20564;-74
2022/10/11 11:21:58;;;;;;;13.45;2.00;;;;;;;24.26;32.65;102797.59;5090115;28;20093;-75
2022/10/11 11:24:57;;;;;;;8.73;1.55;;;;;;;23.96;31.80;102810.28;5089752;28;20027;-75
2022/10/11 11:27:28;;;;;;;7.55;1.45;;;;;;;24.26;33.64;102805.63;5090581;28;20038;-75
2022/10/11 11:30:17;;;;;;;8.38;1.80;;;;;;;23.19;33.75;102803.94;5090068;28;20032;-75
2022/10/11 11:33:08;;;;;;;7.97;1.67;;;;;;;23.23;34.54;102793.16;5090165;28;20031;-75
2022/10/11 11:35:54;;;;;;;9.35;1.67;;;;;;;23.30;34.87;102802.69;5090195;28;20033;-75